createdAt,value
2019-05-26T00:00:01.004Z,13.17
2019-05-26T00:02:28.714Z,13.14
2019-05-26T00:04:56.569Z,13.21
2019-05-26T00:07:30.594Z,13.20
2019-05-26T00:09:53.836Z,13.15
2019-05-26T00:12:21.488Z,13.33
2019-05-26T00:14:49.145Z,13.20
2019-05-26T00:17:16.857Z,13.27
2019-05-26T00:19:44.868Z,13.19
2019-05-26T00:22:12.734Z,13.27
2019-05-26T00:24:40.378Z,13.40
2019-05-26T00:27:08.038Z,13.42
2019-05-26T00:29:35.735Z,13.43
2019-05-26T00:32:03.434Z,13.40
2019-05-26T00:34:31.324Z,13.52
2019-05-26T00:36:58.987Z,13.39
2019-05-26T00:39:26.769Z,13.51
2019-05-26T00:41:54.453Z,13.47
2019-05-26T00:44:22.104Z,13.07
2019-05-26T00:46:49.759Z,13.07
2019-05-26T00:49:17.450Z,13.31
2019-05-26T00:51:45.236Z,13.49
2019-05-26T00:54:13.331Z,13.45
2019-05-26T00:56:41.144Z,13.56
2019-05-26T00:59:08.787Z,13.38
2019-05-26T01:01:36.615Z,13.30
2019-05-26T01:04:04.272Z,13.54
2019-05-26T01:06:31.931Z,13.62
2019-05-26T01:08:59.579Z,13.53
2019-05-26T01:11:27.235Z,13.30
2019-05-26T01:13:55.122Z,13.26
2019-05-26T01:16:22.796Z,13.32
2019-05-26T01:18:50.687Z,13.38
2019-05-26T01:21:18.484Z,13.45
2019-05-26T01:23:46.129Z,13.47
2019-05-26T01:26:13.776Z,13.41
2019-05-26T01:28:41.429Z,13.40
2019-05-26T01:31:09.094Z,13.26
2019-05-26T01:33:36.886Z,13.23
2019-05-26T01:36:04.674Z,13.25
2019-05-26T01:38:32.415Z,13.23
2019-05-26T01:41:00.068Z,13.13
2019-05-26T01:43:27.733Z,12.99
2019-05-26T01:45:55.610Z,12.67
2019-05-26T01:48:23.276Z,12.69
2019-05-26T01:50:51.209Z,13.05
2019-05-26T01:53:19.067Z,13.21
2019-05-26T01:55:46.721Z,13.24
2019-05-26T01:58:14.371Z,13.28
2019-05-26T02:00:42.019Z,13.34
2019-05-26T02:03:09.686Z,13.43
2019-05-26T02:05:37.643Z,13.43
2019-05-26T02:08:05.448Z,13.40
2019-05-26T02:10:33.212Z,13.35
2019-05-26T02:13:00.878Z,13.22
2019-05-26T02:15:28.519Z,13.20
2019-05-26T02:17:56.180Z,13.25
2019-05-26T02:20:23.978Z,13.07
2019-05-26T02:22:51.883Z,12.88
2019-05-26T02:25:19.746Z,12.36
2019-05-26T02:27:47.404Z,12.18
2019-05-26T02:30:15.060Z,12.35
2019-05-26T02:32:42.729Z,12.46
2019-05-26T02:35:10.404Z,12.26
2019-05-26T02:37:38.374Z,12.37
2019-05-26T02:40:06.309Z,12.33
2019-05-26T02:42:34.078Z,12.34
2019-05-26T02:45:01.735Z,12.41
2019-05-26T02:47:29.404Z,12.40
2019-05-26T02:49:57.053Z,12.42
2019-05-26T02:52:24.704Z,12.23
2019-05-26T02:54:52.506Z,12.12
2019-05-26T02:57:20.336Z,11.96
2019-05-26T02:59:48.052Z,12.15
2019-05-26T03:02:15.708Z,12.02
2019-05-26T03:04:43.359Z,11.89
2019-05-26T03:07:11.012Z,11.88
2019-05-26T03:09:38.694Z,11.92
2019-05-26T03:12:06.353Z,11.99
2019-05-26T03:14:34.190Z,11.93
2019-05-26T03:17:01.957Z,11.95
2019-05-26T03:19:29.644Z,11.87
2019-05-26T03:21:57.355Z,11.89
2019-05-26T03:24:25.093Z,11.84
2019-05-26T03:26:52.857Z,11.71
2019-05-26T03:29:20.781Z,11.90
2019-05-26T03:31:48.659Z,12.02
2019-05-26T03:34:16.495Z,12.22
2019-05-26T03:36:44.146Z,12.22
2019-05-26T03:39:11.895Z,12.18
2019-05-26T03:41:39.563Z,12.30
2019-05-26T03:44:07.229Z,12.32
2019-05-26T03:46:34.987Z,12.23
2019-05-26T03:49:02.731Z,12.25
2019-05-26T03:51:30.565Z,12.26
2019-05-26T03:53:58.527Z,12.41
2019-05-26T03:56:26.380Z,12.48
2019-05-26T03:58:54.040Z,12.60
2019-05-26T04:01:21.724Z,12.56
2019-05-26T04:03:49.474Z,12.94
2019-05-26T04:06:17.358Z,12.94
2019-05-26T04:08:45.266Z,13.24
2019-05-26T04:11:13.135Z,13.20
2019-05-26T04:13:40.787Z,13.16
2019-05-26T04:16:08.453Z,13.30
2019-05-26T04:18:36.117Z,13.20
2019-05-26T04:21:03.781Z,13.07
2019-05-26T04:23:31.457Z,13.32
2019-05-26T04:25:59.362Z,13.68
2019-05-26T04:28:27.355Z,13.68
2019-05-26T04:30:55.044Z,14.07
2019-05-26T04:33:22.724Z,14.12
2019-05-26T04:35:50.371Z,14.10
2019-05-26T04:38:18.032Z,14.34
2019-05-26T04:40:45.775Z,14.76
2019-05-26T04:43:15.149Z,14.94
2019-05-26T04:45:43.097Z,15.88
2019-05-26T04:48:10.744Z,15.69
2019-05-26T04:50:38.473Z,16.10
2019-05-26T04:53:07.405Z,16.67
2019-05-26T04:55:35.548Z,16.87
2019-05-26T04:58:03.196Z,17.22
2019-05-26T05:00:30.852Z,17.33
2019-05-26T05:02:58.508Z,17.63
2019-05-26T05:05:26.195Z,17.70
2019-05-26T05:07:54.002Z,17.98
2019-05-26T05:10:21.938Z,18.45
2019-05-26T05:12:49.706Z,18.09
2019-05-26T05:15:17.359Z,18.53
2019-05-26T05:17:45.003Z,17.50
2019-05-26T05:20:12.661Z,18.38
2019-05-26T05:22:40.327Z,18.07
2019-05-26T05:25:14.266Z,18.18
2019-05-26T05:27:37.410Z,18.79
2019-05-26T05:30:05.311Z,18.52
2019-05-26T05:32:33.365Z,18.04
2019-05-26T05:35:01.034Z,18.48
2019-05-26T05:37:28.713Z,19.01
2019-05-26T05:39:56.362Z,19.08
2019-05-26T05:42:24.031Z,19.46
2019-05-26T05:44:51.827Z,19.55
2019-05-26T05:47:19.825Z,20.04
2019-05-26T05:49:47.757Z,19.65
2019-05-26T05:52:15.402Z,19.45
2019-05-26T05:54:43.040Z,20.09
2019-05-26T05:57:10.712Z,20.41
2019-05-26T05:59:38.433Z,19.96
2019-05-26T06:02:06.173Z,19.45
2019-05-26T06:04:34.151Z,19.77
2019-05-26T06:07:01.853Z,19.69
2019-05-26T06:09:29.539Z,19.99
2019-05-26T06:11:57.571Z,20.56
2019-05-26T06:14:25.564Z,19.77
2019-05-26T06:16:53.220Z,20.33
2019-05-26T06:19:20.869Z,20.14
2019-05-26T06:21:48.604Z,20.07
2019-05-26T06:24:16.346Z,20.16
2019-05-26T06:26:44.006Z,20.46
2019-05-26T06:29:11.663Z,20.49
2019-05-26T06:31:39.419Z,20.08
2019-05-26T06:34:07.214Z,20.63
2019-05-26T06:36:34.892Z,20.32
2019-05-26T06:39:02.799Z,20.77
2019-05-26T06:41:33.908Z,20.78
2019-05-26T06:43:59.934Z,20.30
2019-05-26T06:46:27.602Z,20.34
2019-05-26T06:48:55.312Z,20.40
2019-05-26T06:51:22.973Z,19.82
2019-05-26T06:53:50.624Z,20.54
2019-05-26T06:56:18.387Z,21.12
2019-05-26T06:58:46.048Z,21.01
2019-05-26T07:01:13.704Z,21.07
2019-05-26T07:03:41.348Z,20.49
2019-05-26T07:06:09.119Z,20.81
2019-05-26T07:08:36.858Z,20.07
2019-05-26T07:11:04.601Z,19.82
2019-05-26T07:13:32.273Z,20.56
2019-05-26T07:15:59.919Z,20.74
2019-05-26T07:18:27.576Z,20.40
2019-05-26T07:20:55.231Z,20.90
2019-05-26T07:23:23.146Z,21.72
2019-05-26T07:25:50.812Z,21.16
2019-05-26T07:28:18.491Z,20.40
2019-05-26T07:30:46.146Z,20.18
2019-05-26T07:33:13.801Z,19.93
2019-05-26T07:35:41.568Z,19.98
2019-05-26T07:38:09.219Z,19.91
2019-05-26T07:40:36.882Z,19.70
2019-05-26T07:43:04.527Z,19.18
2019-05-26T07:45:32.184Z,19.33
2019-05-26T07:48:00.126Z,20.07
2019-05-26T07:50:27.776Z,19.97
2019-05-26T07:52:55.522Z,19.98
2019-05-26T07:55:23.188Z,19.78
2019-05-26T07:57:50.862Z,19.85
2019-05-26T08:00:18.513Z,19.95
2019-05-26T08:02:46.261Z,19.69
2019-05-26T08:05:14.117Z,20.02
2019-05-26T08:07:41.884Z,20.00
2019-05-26T08:10:09.798Z,20.30
2019-05-26T08:12:37.502Z,19.73
2019-05-26T08:15:05.135Z,20.29
2019-05-26T08:17:32.859Z,20.56
2019-05-26T08:20:00.509Z,20.80
2019-05-26T08:22:40.684Z,20.73
2019-05-26T08:25:08.405Z,20.54
2019-05-26T08:27:36.267Z,20.92
2019-05-26T08:30:03.924Z,21.13
2019-05-26T08:32:32.004Z,20.71
2019-05-26T08:34:59.748Z,20.38
2019-05-26T08:37:27.396Z,20.89
2019-05-26T08:39:57.312Z,21.36
2019-05-26T08:42:28.963Z,20.82
2019-05-26T08:44:54.395Z,21.22
2019-05-26T08:47:22.103Z,20.91
2019-05-26T08:49:50.032Z,21.52
2019-05-26T08:52:17.780Z,21.76
2019-05-26T08:54:45.716Z,21.37
2019-05-26T08:57:13.439Z,21.88
2019-05-26T08:59:41.253Z,21.70
2019-05-26T09:02:08.914Z,21.43
2019-05-26T09:04:36.580Z,21.28
2019-05-26T09:07:04.225Z,21.17
2019-05-26T09:09:31.875Z,21.64
2019-05-26T09:11:59.545Z,21.26
2019-05-26T09:14:27.215Z,21.76
2019-05-26T09:16:54.878Z,22.21
2019-05-26T09:19:22.627Z,21.81
2019-05-26T09:21:50.648Z,21.78
2019-05-26T09:24:18.308Z,21.33
2019-05-26T09:26:45.975Z,22.17
2019-05-26T09:29:13.661Z,22.74
2019-05-26T09:31:41.688Z,22.71
2019-05-26T09:34:09.556Z,21.94
2019-05-26T09:36:37.215Z,21.81
2019-05-26T09:39:05.611Z,22.04
2019-05-26T09:41:33.276Z,22.02
2019-05-26T09:44:01.480Z,22.16
2019-05-26T09:46:29.461Z,22.26
2019-05-26T09:49:00.649Z,22.46
2019-05-26T09:51:26.495Z,22.62
2019-05-26T09:54:01.530Z,22.62
2019-05-26T09:56:23.748Z,22.66
2019-05-26T09:58:51.408Z,23.24
2019-05-26T10:01:19.060Z,22.63
2019-05-26T10:03:46.741Z,22.63
2019-05-26T10:06:14.412Z,22.87
2019-05-26T10:08:42.073Z,22.65
2019-05-26T10:11:09.737Z,22.84
2019-05-26T10:13:37.502Z,22.68
2019-05-26T10:16:05.180Z,23.12
2019-05-26T10:18:32.912Z,23.18
2019-05-26T10:21:00.557Z,23.01
2019-05-26T10:23:28.211Z,22.53
2019-05-26T10:25:56.096Z,22.60
2019-05-26T10:28:23.751Z,23.13
2019-05-26T10:30:51.515Z,23.00
2019-05-26T10:33:19.356Z,22.77
2019-05-26T10:35:47.014Z,22.64
2019-05-26T10:38:14.750Z,22.74
2019-05-26T10:40:42.420Z,23.00
2019-05-26T10:43:10.071Z,22.98
2019-05-26T10:45:37.996Z,23.68
2019-05-26T10:48:05.677Z,23.54
2019-05-26T10:50:33.449Z,23.76
2019-05-26T10:53:01.517Z,23.24
2019-05-26T10:55:29.192Z,23.31
2019-05-26T10:57:56.858Z,22.94
2019-05-26T11:00:24.646Z,22.94
2019-05-26T11:02:52.347Z,23.14
2019-05-26T11:05:20.171Z,23.29
2019-05-26T11:07:47.928Z,23.21
2019-05-26T11:10:15.599Z,23.58
2019-05-26T11:12:43.332Z,23.58
2019-05-26T11:15:11.046Z,23.53
2019-05-26T11:17:38.730Z,23.82
2019-05-26T11:20:06.387Z,23.14
2019-05-26T11:22:34.076Z,23.53
2019-05-26T11:25:01.743Z,22.93
2019-05-26T11:27:29.406Z,23.51
2019-05-26T11:29:57.084Z,23.90
2019-05-26T11:32:24.832Z,24.27
2019-05-26T11:35:01.246Z,23.54
2019-05-26T11:37:21.852Z,23.84
2019-05-26T11:39:49.571Z,23.33
2019-05-26T11:42:17.232Z,23.49
2019-05-26T11:44:44.889Z,23.83
2019-05-26T11:47:12.557Z,23.98
2019-05-26T11:49:40.216Z,24.18
2019-05-26T11:52:07.932Z,23.44
2019-05-26T11:54:35.631Z,23.96
2019-05-26T11:57:03.388Z,23.59
2019-05-26T11:59:31.060Z,23.73
2019-05-26T12:01:58.742Z,23.98
2019-05-26T12:04:26.407Z,23.31
2019-05-26T12:06:54.070Z,23.73
2019-05-26T12:09:21.745Z,23.62
2019-05-26T12:11:49.404Z,24.14
2019-05-26T12:14:33.053Z,23.87
2019-05-26T12:16:46.511Z,24.30
2019-05-26T12:19:14.347Z,23.56
2019-05-26T12:21:42.136Z,23.61
2019-05-26T12:24:09.792Z,23.77
2019-05-26T12:26:37.475Z,23.51
2019-05-26T12:29:05.138Z,24.07
2019-05-26T12:31:32.814Z,23.45
2019-05-26T12:34:00.477Z,23.98
2019-05-26T12:36:28.137Z,24.20
2019-05-26T12:38:55.838Z,24.38
2019-05-26T12:41:23.684Z,24.38
2019-05-26T12:43:51.570Z,24.13
2019-05-26T12:46:19.319Z,24.24
2019-05-26T12:48:46.983Z,24.24
2019-05-26T12:51:14.648Z,23.76
2019-05-26T12:53:42.323Z,23.65
2019-05-26T12:56:09.995Z,23.65
2019-05-26T12:58:37.724Z,23.64
2019-05-26T13:01:05.529Z,24.04
2019-05-26T13:03:33.224Z,23.97
2019-05-26T13:06:00.898Z,23.85
2019-05-26T13:08:28.552Z,24.24
2019-05-26T13:10:56.208Z,23.77
2019-05-26T13:13:23.902Z,23.86
2019-05-26T13:15:51.596Z,24.24
2019-05-26T13:18:19.500Z,24.30
2019-05-26T13:20:47.364Z,24.11
2019-05-26T13:23:15.040Z,24.09
2019-05-26T13:25:42.693Z,24.28
2019-05-26T13:28:10.384Z,24.50
2019-05-26T13:30:38.100Z,24.65
2019-05-26T13:33:05.940Z,24.27
2019-05-26T13:35:33.872Z,24.22
2019-05-26T13:38:01.540Z,24.31
2019-05-26T13:40:29.785Z,24.31
2019-05-26T13:42:57.563Z,24.75
2019-05-26T13:45:25.220Z,24.76
2019-05-26T13:47:52.925Z,24.67
2019-05-26T13:50:20.800Z,24.57
2019-05-26T13:52:48.451Z,24.00
2019-05-26T13:55:16.117Z,23.87
2019-05-26T13:57:43.763Z,24.22
2019-05-26T14:00:11.669Z,24.43
2019-05-26T14:02:39.525Z,24.08
2019-05-26T14:05:07.464Z,24.19
2019-05-26T14:07:35.135Z,24.35
2019-05-26T14:10:02.779Z,24.29
2019-05-26T14:12:30.443Z,24.26
2019-05-26T14:14:58.104Z,24.23
2019-05-26T14:17:25.936Z,24.46
2019-05-26T14:19:53.617Z,24.38
2019-05-26T14:22:21.279Z,24.17
2019-05-26T14:24:53.887Z,24.58
2019-05-26T14:27:18.437Z,24.64
2019-05-26T14:29:46.089Z,24.61
2019-05-26T14:32:13.748Z,24.26
2019-05-26T14:34:41.407Z,24.22
2019-05-26T14:37:09.080Z,24.45
2019-05-26T14:39:36.735Z,24.31
2019-05-26T14:42:04.526Z,24.50
2019-05-26T14:44:32.384Z,24.18
2019-05-26T14:47:00.063Z,24.34
2019-05-26T14:49:27.746Z,24.44
2019-05-26T14:51:55.467Z,24.47
2019-05-26T14:54:23.140Z,24.38
2019-05-26T14:56:50.805Z,24.10
2019-05-26T14:59:18.694Z,23.78
2019-05-26T15:01:46.481Z,23.87
2019-05-26T15:04:14.149Z,24.04
2019-05-26T15:06:41.815Z,23.91
2019-05-26T15:09:24.260Z,23.86
2019-05-26T15:11:39.034Z,23.78
2019-05-26T15:14:06.826Z,23.81
2019-05-26T15:16:34.568Z,23.93
2019-05-26T15:19:02.264Z,24.08
2019-05-26T15:21:30.002Z,24.28
2019-05-26T15:23:57.704Z,23.92
2019-05-26T15:26:25.488Z,24.17
2019-05-26T15:28:53.854Z,24.10
2019-05-26T15:31:21.581Z,24.32
2019-05-26T15:33:49.395Z,24.16
2019-05-26T15:36:17.062Z,23.98
2019-05-26T15:38:44.733Z,23.98
2019-05-26T15:41:12.404Z,23.94
2019-05-26T15:43:40.073Z,23.90
2019-05-26T15:46:07.881Z,23.85
2019-05-26T15:48:35.564Z,23.76
2019-05-26T15:51:03.350Z,23.62
2019-05-26T15:53:31.203Z,23.58
2019-05-26T15:55:59.051Z,23.73
2019-05-26T15:58:26.757Z,23.73
2019-05-26T16:00:54.431Z,23.56
2019-05-26T16:03:22.098Z,23.58
2019-05-26T16:05:49.765Z,23.44
2019-05-26T16:08:17.477Z,23.30
2019-05-26T16:10:45.135Z,23.45
2019-05-26T16:13:12.797Z,23.40
2019-05-26T16:15:40.445Z,23.39
2019-05-26T16:18:08.117Z,23.32
2019-05-26T16:20:35.955Z,23.42
2019-05-26T16:23:03.616Z,23.39
2019-05-26T16:25:31.273Z,23.49
2019-05-26T16:27:58.928Z,23.61
2019-05-26T16:30:26.597Z,23.38
2019-05-26T16:32:54.248Z,23.35
2019-05-26T16:35:21.914Z,23.42
2019-05-26T16:37:49.571Z,23.70
2019-05-26T16:40:17.282Z,23.77
2019-05-26T16:42:44.942Z,23.64
2019-05-26T16:45:12.659Z,23.63
2019-05-26T16:47:40.385Z,23.75
2019-05-26T16:50:08.054Z,23.43
2019-05-26T16:52:35.721Z,23.39
2019-05-26T16:55:03.407Z,23.54
2019-05-26T16:57:31.047Z,23.43
2019-05-26T16:59:58.707Z,23.40
2019-05-26T17:02:26.421Z,23.45
2019-05-26T17:04:54.080Z,23.48
2019-05-26T17:07:21.732Z,23.39
2019-05-26T17:09:49.437Z,23.37
2019-05-26T17:12:17.136Z,23.47
2019-05-26T17:14:44.905Z,23.35
2019-05-26T17:17:15.183Z,23.41
2019-05-26T17:19:41.953Z,23.36
2019-05-26T17:22:09.692Z,23.24
2019-05-26T17:24:37.408Z,23.38
2019-05-26T17:27:05.072Z,23.23
2019-05-26T17:29:32.812Z,23.08
2019-05-26T17:32:00.477Z,23.12
2019-05-26T17:34:28.150Z,22.98
2019-05-26T17:36:55.796Z,23.13
2019-05-26T17:39:23.544Z,22.98
2019-05-26T17:41:51.188Z,22.90
2019-05-26T17:44:18.856Z,22.87
2019-05-26T17:46:46.525Z,22.76
2019-05-26T17:49:14.199Z,22.84
2019-05-26T17:51:41.897Z,22.70
2019-05-26T17:54:09.601Z,22.61
2019-05-26T17:56:37.275Z,22.76
2019-05-26T17:59:04.952Z,22.72
2019-05-26T18:01:32.685Z,22.70
2019-05-26T18:04:00.495Z,22.54
2019-05-26T18:06:28.220Z,22.61
2019-05-26T18:08:55.880Z,22.66
2019-05-26T18:11:23.547Z,22.40
2019-05-26T18:13:51.251Z,22.38
2019-05-26T18:16:19.147Z,22.28
2019-05-26T18:18:46.904Z,22.20
2019-05-26T18:21:14.558Z,22.26
2019-05-26T18:23:42.216Z,22.01
2019-05-26T18:26:09.891Z,22.00
2019-05-26T18:28:37.549Z,21.91
2019-05-26T18:31:05.211Z,21.77
2019-05-26T18:33:32.897Z,21.79
2019-05-26T18:36:00.584Z,21.67
2019-05-26T18:38:28.243Z,21.65
2019-05-26T18:40:56.101Z,21.51
2019-05-26T18:43:23.807Z,21.40
2019-05-26T18:45:51.536Z,21.52
2019-05-26T18:48:19.271Z,21.41
2019-05-26T18:50:47.033Z,21.29
2019-05-26T18:53:14.722Z,20.95
2019-05-26T18:55:42.374Z,20.92
2019-05-26T18:58:10.028Z,20.90
2019-05-26T19:00:37.673Z,20.91
2019-05-26T19:03:05.333Z,20.87
2019-05-26T19:05:38.072Z,20.72
2019-05-26T19:08:02.416Z,20.77
2019-05-26T19:10:30.067Z,20.54
2019-05-26T19:12:57.711Z,20.50
2019-05-26T19:15:25.740Z,20.53
2019-05-26T19:17:53.581Z,20.32
2019-05-26T19:20:21.241Z,20.08
2019-05-26T19:22:48.896Z,20.01
2019-05-26T19:25:16.572Z,19.87
2019-05-26T19:27:44.292Z,19.82
2019-05-26T19:30:11.944Z,19.72
2019-05-26T19:32:39.693Z,19.35
2019-05-26T19:35:07.355Z,19.54
2019-05-26T19:37:35.018Z,19.47
2019-05-26T19:40:02.656Z,19.36
2019-05-26T19:42:30.312Z,19.35
2019-05-26T19:44:57.957Z,19.30
2019-05-26T19:47:25.604Z,19.29
2019-05-26T19:49:53.401Z,19.28
2019-05-26T19:52:21.168Z,19.29
2019-05-26T19:54:48.886Z,19.27
2019-05-26T19:57:16.533Z,18.98
2019-05-26T19:59:44.267Z,18.96
2019-05-26T20:02:18.257Z,18.83
2019-05-26T20:04:41.376Z,18.85
2019-05-26T20:07:09.103Z,18.77
2019-05-26T20:09:36.747Z,18.86
2019-05-26T20:12:04.599Z,18.80
2019-05-26T20:14:32.251Z,18.78
2019-05-26T20:16:59.897Z,18.44
2019-05-26T20:19:27.575Z,18.40
2019-05-26T20:21:55.359Z,18.58
2019-05-26T20:24:23.217Z,18.67
2019-05-26T20:26:50.864Z,18.33
2019-05-26T20:29:18.522Z,18.42
2019-05-26T20:31:46.179Z,18.50
2019-05-26T20:34:13.835Z,18.56
2019-05-26T20:36:41.493Z,18.58
2019-05-26T20:39:09.151Z,18.41
2019-05-26T20:41:36.815Z,18.41
2019-05-26T20:44:04.551Z,18.44
2019-05-26T21:01:07.780Z,17.98
2019-05-26T21:03:35.429Z,17.87
2019-05-26T21:06:03.209Z,17.99
2019-05-26T21:08:31.035Z,17.88
2019-05-26T21:10:58.695Z,17.68
2019-05-26T21:13:26.432Z,17.82
2019-05-26T21:15:54.076Z,17.81
2019-05-26T21:18:21.738Z,17.88
2019-05-26T21:20:49.377Z,17.80
2019-05-26T21:23:17.226Z,17.77
2019-05-26T21:25:44.869Z,17.78
2019-05-26T21:28:12.700Z,17.75
2019-05-26T21:30:40.368Z,17.59
2019-05-26T21:33:08.028Z,17.57
2019-05-26T21:35:35.667Z,17.55
2019-05-26T21:38:03.340Z,17.31
2019-05-26T21:40:31.158Z,17.39
2019-05-26T21:42:58.799Z,17.38
2019-05-26T21:45:26.469Z,17.44
2019-05-26T21:47:54.335Z,17.26
2019-05-26T21:50:21.984Z,17.27
2019-05-26T21:52:49.640Z,17.17
2019-05-26T21:55:17.331Z,16.99
2019-05-26T21:57:45.045Z,17.05
2019-05-26T22:00:14.399Z,17.08
2019-05-26T22:02:42.055Z,17.03
2019-05-26T22:05:09.895Z,16.88
2019-05-26T22:07:37.617Z,16.82
2019-05-26T22:10:05.332Z,16.61
2019-05-26T22:12:33.255Z,16.70
2019-05-26T22:15:00.968Z,16.71
2019-05-26T22:17:28.801Z,16.63
2019-05-26T22:19:56.450Z,16.72
2019-05-26T22:22:24.109Z,16.77
2019-05-26T22:24:51.752Z,16.66
2019-05-26T22:27:19.399Z,16.58
2019-05-26T22:29:47.238Z,16.65
2019-05-26T22:32:14.893Z,16.67
2019-05-26T22:34:42.531Z,16.54
2019-05-26T22:37:10.421Z,16.40
2019-05-26T22:39:38.079Z,16.48
2019-05-26T22:42:05.758Z,16.53
2019-05-26T22:44:33.480Z,16.52
2019-05-26T22:47:01.134Z,16.53
2019-05-26T22:49:28.773Z,16.33
2019-05-26T22:51:56.689Z,16.22
2019-05-26T22:54:24.375Z,16.13
2019-05-26T22:56:52.039Z,15.99
2019-05-26T22:59:19.696Z,15.94
2019-05-26T23:01:47.352Z,15.95
2019-05-26T23:04:15.020Z,16.09
2019-05-26T23:06:42.673Z,15.86
2019-05-26T23:09:10.331Z,16.12
2019-05-26T23:11:38.015Z,15.97
2019-05-26T23:14:05.952Z,15.87
2019-05-26T23:16:33.689Z,16.02
2019-05-26T23:19:01.320Z,15.99
2019-05-26T23:21:29.139Z,15.87
2019-05-26T23:23:56.825Z,15.88
2019-05-26T23:26:24.721Z,15.72
2019-05-26T23:28:52.475Z,15.63
2019-05-26T23:31:20.179Z,15.66
2019-05-26T23:33:48.185Z,15.74
2019-05-26T23:36:15.839Z,15.52
2019-05-26T23:38:43.489Z,15.65
2019-05-26T23:41:11.335Z,15.47
2019-05-26T23:43:39.015Z,15.44
2019-05-26T23:46:06.660Z,15.54
2019-05-26T23:48:34.445Z,15.39
2019-05-26T23:51:02.164Z,15.52
2019-05-26T23:53:29.890Z,15.58
2019-05-26T23:55:57.944Z,15.48
2019-05-26T23:58:25.688Z,15.55
